sensor_id;sensor_type;location;lat;lon;timestamp;P1;durP1;ratioP1;P2;durP2;ratioP2
19560;SDS011;9927;47.792;10.616;2023-05-07T03:01:29;5.80;;;5.40;;
19560;SDS011;9927;47.792;10.616;2023-05-07T03:03:56;10.38;;;6.03;;
19560;SDS011;9927;47.792;10.616;2023-05-07T03:06:24;6.63;;;5.93;;
19560;SDS011;9927;47.792;10.616;2023-05-07T03:08:51;6.53;;;5.82;;
19560;SDS011;9927;47.792;10.616;2023-05-07T03:11:18;6.47;;;5.88;;
19560;SDS011;9927;47.792;10.616;2023-05-07T03:13:46;6.73;;;5.93;;
19560;SDS011;9927;47.792;10.616;2023-05-07T03:16:15;6.88;;;6.18;;
19560;SDS011;9927;47.792;10.616;2023-05-07T03:18:42;8.73;;;6.68;;
19560;SDS011;9927;47.792;10.616;2023-05-07T03:21:10;7.30;;;6.32;;
19560;SDS011;9927;47.792;10.616;2023-05-07T03:23:37;10.43;;;7.25;;
19560;SDS011;9927;47.792;10.616;2023-05-07T03:26:04;7.47;;;6.25;;
19560;SDS011;9927;47.792;10.616;2023-05-07T03:28:32;9.70;;;6.20;;
19560;SDS011;9927;47.792;10.616;2023-05-07T03:30:59;7.55;;;6.50;;
19560;SDS011;9927;47.792;10.616;2023-05-07T03:33:26;6.65;;;5.95;;
19560;SDS011;9927;47.792;10.616;2023-05-07T03:35:54;7.75;;;6.03;;
19560;SDS011;9927;47.792;10.616;2023-05-07T03:38:21;6.80;;;6.10;;
19560;SDS011;9927;47.792;10.616;2023-05-07T03:40:48;7.88;;;6.70;;
19560;SDS011;9927;47.792;10.616;2023-05-07T03:43:15;6.38;;;5.90;;
19560;SDS011;9927;47.792;10.616;2023-05-07T03:45:43;8.88;;;6.80;;
19560;SDS011;9927;47.792;10.616;2023-05-07T03:48:10;7.47;;;6.07;;
19560;SDS011;9927;47.792;10.616;2023-05-07T03:50:37;11.70;;;7.45;;
19560;SDS011;9927;47.792;10.616;2023-05-07T03:53:04;7.10;;;6.03;;
19560;SDS011;9927;47.792;10.616;2023-05-07T03:55:32;6.57;;;5.90;;
19560;SDS011;9927;47.792;10.616;2023-05-07T03:57:59;5.65;;;5.35;;
19560;SDS011;9927;47.792;10.616;2023-05-07T04:00:26;13.82;;;6.85;;
19560;SDS011;9927;47.792;10.616;2023-05-07T04:02:54;8.75;;;6.28;;
19560;SDS011;9927;47.792;10.616;2023-05-07T04:05:21;8.55;;;6.15;;
19560;SDS011;9927;47.792;10.616;2023-05-07T04:07:48;5.50;;;5.10;;
19560;SDS011;9927;47.792;10.616;2023-05-07T04:10:15;9.68;;;6.18;;
19560;SDS011;9927;47.792;10.616;2023-05-07T04:12:43;9.70;;;5.75;;
19560;SDS011;9927;47.792;10.616;2023-05-07T04:15:10;7.63;;;5.70;;
19560;SDS011;9927;47.792;10.616;2023-05-07T04:17:37;6.97;;;6.05;;
19560;SDS011;9927;47.792;10.616;2023-05-07T04:20:14;7.18;;;5.82;;
19560;SDS011;9927;47.792;10.616;2023-05-07T04:22:43;6.15;;;5.50;;
19560;SDS011;9927;47.792;10.616;2023-05-07T04:25:10;9.23;;;5.10;;
19560;SDS011;9927;47.792;10.616;2023-05-07T04:27:37;6.22;;;4.72;;
19560;SDS011;9927;47.792;10.616;2023-05-07T04:30:04;8.35;;;5.57;;
19560;SDS011;9927;47.792;10.616;2023-05-07T04:32:33;4.60;;;4.30;;
19560;SDS011;9927;47.792;10.616;2023-05-07T04:35:00;7.60;;;5.60;;
19560;SDS011;9927;47.792;10.616;2023-05-07T04:37:27;7.32;;;5.20;;
19560;SDS011;9927;47.792;10.616;2023-05-07T04:40:01;6.82;;;5.40;;
19560;SDS011;9927;47.792;10.616;2023-05-07T04:42:29;6.07;;;5.47;;
19560;SDS011;9927;47.792;10.616;2023-05-07T04:44:57;7.93;;;6.38;;
19560;SDS011;9927;47.792;10.616;2023-05-07T04:47:25;6.80;;;5.40;;
19560;SDS011;9927;47.792;10.616;2023-05-07T04:49:58;9.52;;;5.90;;
19560;SDS011;9927;47.792;10.616;2023-05-07T04:52:43;5.80;;;5.38;;
19560;SDS011;9927;47.792;10.616;2023-05-07T04:55:30;8.63;;;6.18;;
19560;SDS011;9927;47.792;10.616;2023-05-07T04:58:01;6.53;;;5.93;;
19560;SDS011;9927;47.792;10.616;2023-05-07T05:00:29;15.20;;;7.47;;
19560;SDS011;9927;47.792;10.616;2023-05-07T05:02:57;8.98;;;6.35;;
19560;SDS011;9927;47.792;10.616;2023-05-07T05:05:24;8.35;;;5.82;;
19560;SDS011;9927;47.792;10.616;2023-05-07T05:07:52;9.60;;;5.88;;
19560;SDS011;9927;47.792;10.616;2023-05-07T05:10:19;9.27;;;6.10;;
19560;SDS011;9927;47.792;10.616;2023-05-07T05:12:50;8.60;;;5.68;;
19560;SDS011;9927;47.792;10.616;2023-05-07T05:15:17;6.03;;;5.53;;
19560;SDS011;9927;47.792;10.616;2023-05-07T05:17:44;8.57;;;6.20;;
19560;SDS011;9927;47.792;10.616;2023-05-07T05:20:12;12.85;;;7.40;;
19560;SDS011;9927;47.792;10.616;2023-05-07T05:22:39;13.57;;;8.55;;
19560;SDS011;9927;47.792;10.616;2023-05-07T05:25:13;9.48;;;7.47;;
19560;SDS011;9927;47.792;10.616;2023-05-07T05:28:05;8.82;;;7.20;;
19560;SDS011;9927;47.792;10.616;2023-05-07T05:30:33;12.73;;;6.70;;
19560;SDS011;9927;47.792;10.616;2023-05-07T05:33:19;6.70;;;6.07;;
19560;SDS011;9927;47.792;10.616;2023-05-07T05:35:49;6.68;;;6.03;;
19560;SDS011;9927;47.792;10.616;2023-05-07T05:38:17;6.47;;;5.63;;
19560;SDS011;9927;47.792;10.616;2023-05-07T05:40:53;6.13;;;5.60;;
19560;SDS011;9927;47.792;10.616;2023-05-07T05:43:22;7.78;;;5.32;;
19560;SDS011;9927;47.792;10.616;2023-05-07T05:45:49;7.25;;;6.25;;
19560;SDS011;9927;47.792;10.616;2023-05-07T05:48:16;7.43;;;6.53;;
19560;SDS011;9927;47.792;10.616;2023-05-07T05:50:44;8.27;;;6.20;;
19560;SDS011;9927;47.792;10.616;2023-05-07T05:53:11;6.22;;;5.63;;
19560;SDS011;9927;47.792;10.616;2023-05-07T05:55:38;5.28;;;4.88;;
19560;SDS011;9927;47.792;10.616;2023-05-07T05:58:05;4.40;;;4.20;;
19560;SDS011;9927;47.792;10.616;2023-05-07T06:00:33;6.55;;;5.65;;
19560;SDS011;9927;47.792;10.616;2023-05-07T06:03:00;5.40;;;5.00;;
19560;SDS011;9927;47.792;10.616;2023-05-07T06:05:27;4.97;;;4.50;;
19560;SDS011;9927;47.792;10.616;2023-05-07T06:07:55;5.03;;;4.72;;
19560;SDS011;9927;47.792;10.616;2023-05-07T06:10:22;5.18;;;4.78;;
19560;SDS011;9927;47.792;10.616;2023-05-07T06:12:50;6.13;;;4.68;;
19560;SDS011;9927;47.792;10.616;2023-05-07T06:15:18;4.40;;;4.10;;
19560;SDS011;9927;47.792;10.616;2023-05-07T06:17:45;4.65;;;4.35;;
19560;SDS011;9927;47.792;10.616;2023-05-07T06:20:12;4.50;;;4.10;;
19560;SDS011;9927;47.792;10.616;2023-05-07T06:22:39;4.57;;;4.30;;
19560;SDS011;9927;47.792;10.616;2023-05-07T06:25:07;3.80;;;3.53;;
19560;SDS011;9927;47.792;10.616;2023-05-07T06:27:34;4.10;;;3.80;;
19560;SDS011;9927;47.792;10.616;2023-05-07T06:30:02;4.05;;;3.65;;
19560;SDS011;9927;47.792;10.616;2023-05-07T06:32:29;4.10;;;3.80;;
19560;SDS011;9927;47.792;10.616;2023-05-07T06:34:57;3.40;;;3.30;;
19560;SDS011;9927;47.792;10.616;2023-05-07T06:37:24;3.45;;;3.33;;
19560;SDS011;9927;47.792;10.616;2023-05-07T06:39:51;3.63;;;3.50;;
19560;SDS011;9927;47.792;10.616;2023-05-07T06:42:18;3.08;;;2.97;;
19560;SDS011;9927;47.792;10.616;2023-05-07T06:44:46;3.00;;;2.80;;
19560;SDS011;9927;47.792;10.616;2023-05-07T06:47:13;4.22;;;3.83;;
19560;SDS011;9927;47.792;10.616;2023-05-07T06:49:42;4.82;;;4.43;;
19560;SDS011;9927;47.792;10.616;2023-05-07T06:52:09;4.38;;;4.07;;
19560;SDS011;9927;47.792;10.616;2023-05-07T06:54:36;4.93;;;3.65;;
19560;SDS011;9927;47.792;10.616;2023-05-07T06:57:03;3.78;;;3.50;;
19560;SDS011;9927;47.792;10.616;2023-05-07T06:59:31;4.65;;;4.30;;
19560;SDS011;9927;47.792;10.616;2023-05-07T07:01:58;4.45;;;4.07;;
19560;SDS011;9927;47.792;10.616;2023-05-07T07:04:26;3.80;;;3.55;;
19560;SDS011;9927;47.792;10.616;2023-05-07T07:06:53;3.17;;;2.90;;
19560;SDS011;9927;47.792;10.616;2023-05-07T07:09:21;4.40;;;4.10;;
19560;SDS011;9927;47.792;10.616;2023-05-07T07:11:49;3.63;;;3.42;;
19560;SDS011;9927;47.792;10.616;2023-05-07T07:14:17;3.72;;;3.42;;
19560;SDS011;9927;47.792;10.616;2023-05-07T07:16:44;2.92;;;2.83;;
19560;SDS011;9927;47.792;10.616;2023-05-07T07:19:13;3.08;;;2.88;;
19560;SDS011;9927;47.792;10.616;2023-05-07T07:21:42;3.70;;;3.40;;
19560;SDS011;9927;47.792;10.616;2023-05-07T07:24:09;3.83;;;3.53;;
19560;SDS011;9927;47.792;10.616;2023-05-07T07:26:36;3.72;;;3.42;;
19560;SDS011;9927;47.792;10.616;2023-05-07T07:29:04;3.55;;;3.25;;
19560;SDS011;9927;47.792;10.616;2023-05-07T07:31:31;3.83;;;3.10;;
19560;SDS011;9927;47.792;10.616;2023-05-07T07:33:58;3.38;;;3.17;;
19560;SDS011;9927;47.792;10.616;2023-05-07T07:36:25;3.22;;;3.13;;
19560;SDS011;9927;47.792;10.616;2023-05-07T07:39:11;3.28;;;3.10;;
19560;SDS011;9927;47.792;10.616;2023-05-07T07:41:38;3.53;;;3.25;;
19560;SDS011;9927;47.792;10.616;2023-05-07T07:44:05;2.67;;;2.58;;
19560;SDS011;9927;47.792;10.616;2023-05-07T07:46:34;2.15;;;2.05;;
19560;SDS011;9927;47.792;10.616;2023-05-07T07:49:01;2.42;;;2.33;;
19560;SDS011;9927;47.792;10.616;2023-05-07T07:51:28;2.72;;;2.63;;
19560;SDS011;9927;47.792;10.616;2023-05-07T07:53:55;2.92;;;2.83;;
19560;SDS011;9927;47.792;10.616;2023-05-07T07:56:24;2.60;;;2.40;;
19560;SDS011;9927;47.792;10.616;2023-05-07T07:58:51;2.50;;;2.30;;
19560;SDS011;9927;47.792;10.616;2023-05-07T08:01:19;2.40;;;2.30;;
19560;SDS011;9927;47.792;10.616;2023-05-07T08:03:46;2.80;;;2.70;;
19560;SDS011;9927;47.792;10.616;2023-05-07T08:06:15;2.55;;;2.45;;
19560;SDS011;9927;47.792;10.616;2023-05-07T08:08:42;2.97;;;2.67;;
19560;SDS011;9927;47.792;10.616;2023-05-07T08:11:09;2.30;;;2.20;;
19560;SDS011;9927;47.792;10.616;2023-05-07T08:13:37;2.25;;;2.15;;
19560;SDS011;9927;47.792;10.616;2023-05-07T08:16:05;2.88;;;2.05;;
19560;SDS011;9927;47.792;10.616;2023-05-07T08:18:32;2.50;;;2.30;;
19560;SDS011;9927;47.792;10.616;2023-05-07T08:20:59;2.22;;;2.05;;
19560;SDS011;9927;47.792;10.616;2023-05-07T08:23:27;2.42;;;2.33;;
19560;SDS011;9927;47.792;10.616;2023-05-07T08:25:55;2.38;;;2.28;;
19560;SDS011;9927;47.792;10.616;2023-05-07T08:28:22;2.15;;;2.05;;
19560;SDS011;9927;47.792;10.616;2023-05-07T08:30:51;2.20;;;2.10;;
19560;SDS011;9927;47.792;10.616;2023-05-07T08:33:18;2.83;;;2.55;;
19560;SDS011;9927;47.792;10.616;2023-05-07T08:35:46;4.13;;;2.50;;
19560;SDS011;9927;47.792;10.616;2023-05-07T08:38:13;2.58;;;2.38;;
19560;SDS011;9927;47.792;10.616;2023-05-07T08:40:40;2.97;;;2.67;;
19560;SDS011;9927;47.792;10.616;2023-05-07T08:43:07;5.93;;;2.80;;
19560;SDS011;9927;47.792;10.616;2023-05-07T08:45:39;2.45;;;2.30;;
19560;SDS011;9927;47.792;10.616;2023-05-07T08:48:14;3.17;;;2.70;;
19560;SDS011;9927;47.792;10.616;2023-05-07T08:50:42;6.35;;;4.07;;
19560;SDS011;9927;47.792;10.616;2023-05-07T08:53:10;2.47;;;2.30;;
19560;SDS011;9927;47.792;10.616;2023-05-07T08:55:37;2.97;;;2.70;;
19560;SDS011;9927;47.792;10.616;2023-05-07T08:58:04;2.92;;;2.65;;
19560;SDS011;9927;47.792;10.616;2023-05-07T09:00:31;6.78;;;4.03;;
19560;SDS011;9927;47.792;10.616;2023-05-07T09:03:00;4.43;;;2.90;;
19560;SDS011;9927;47.792;10.616;2023-05-07T09:05:27;3.25;;;2.80;;
19560;SDS011;9927;47.792;10.616;2023-05-07T09:07:54;3.15;;;2.92;;
19560;SDS011;9927;47.792;10.616;2023-05-07T09:10:24;3.67;;;3.25;;
19560;SDS011;9927;47.792;10.616;2023-05-07T09:12:52;3.40;;;3.10;;
19560;SDS011;9927;47.792;10.616;2023-05-07T09:15:20;5.18;;;3.25;;
19560;SDS011;9927;47.792;10.616;2023-05-07T09:17:47;4.53;;;3.60;;
19560;SDS011;9927;47.792;10.616;2023-05-07T09:20:14;4.95;;;3.45;;
19560;SDS011;9927;47.792;10.616;2023-05-07T09:22:43;4.03;;;3.60;;
19560;SDS011;9927;47.792;10.616;2023-05-07T09:25:11;4.93;;;3.47;;
19560;SDS011;9927;47.792;10.616;2023-05-07T09:27:38;12.05;;;6.63;;
19560;SDS011;9927;47.792;10.616;2023-05-07T09:30:08;5.82;;;3.72;;
19560;SDS011;9927;47.792;10.616;2023-05-07T09:32:36;4.60;;;3.45;;
19560;SDS011;9927;47.792;10.616;2023-05-07T09:35:14;5.25;;;3.35;;
19560;SDS011;9927;47.792;10.616;2023-05-07T09:37:43;3.35;;;2.95;;
19560;SDS011;9927;47.792;10.616;2023-05-07T09:40:19;3.80;;;3.15;;
19560;SDS011;9927;47.792;10.616;2023-05-07T09:42:54;2.95;;;2.72;;
19560;SDS011;9927;47.792;10.616;2023-05-07T09:45:22;7.20;;;3.50;;
19560;SDS011;9927;47.792;10.616;2023-05-07T09:47:56;4.93;;;3.22;;
19560;SDS011;9927;47.792;10.616;2023-05-07T09:50:26;4.55;;;3.28;;
19560;SDS011;9927;47.792;10.616;2023-05-07T09:52:55;3.97;;;2.53;;
19560;SDS011;9927;47.792;10.616;2023-05-07T09:55:23;3.20;;;2.78;;
19560;SDS011;9927;47.792;10.616;2023-05-07T09:57:50;4.13;;;3.15;;
19560;SDS011;9927;47.792;10.616;2023-05-07T10:00:20;7.25;;;4.03;;
19560;SDS011;9927;47.792;10.616;2023-05-07T10:02:49;5.95;;;3.40;;
19560;SDS011;9927;47.792;10.616;2023-05-07T10:05:19;6.00;;;3.40;;
19560;SDS011;9927;47.792;10.616;2023-05-07T10:07:49;4.93;;;3.08;;
19560;SDS011;9927;47.792;10.616;2023-05-07T10:10:17;4.25;;;3.17;;
19560;SDS011;9927;47.792;10.616;2023-05-07T10:12:45;5.45;;;3.10;;
19560;SDS011;9927;47.792;10.616;2023-05-07T10:15:12;5.03;;;2.75;;
19560;SDS011;9927;47.792;10.616;2023-05-07T10:17:41;6.38;;;3.10;;
19560;SDS011;9927;47.792;10.616;2023-05-07T10:20:08;4.35;;;3.03;;
19560;SDS011;9927;47.792;10.616;2023-05-07T10:22:40;3.00;;;2.63;;
19560;SDS011;9927;47.792;10.616;2023-05-07T10:25:14;3.00;;;2.50;;
19560;SDS011;9927;47.792;10.616;2023-05-07T10:27:47;3.80;;;2.88;;
19560;SDS011;9927;47.792;10.616;2023-05-07T10:32:59;4.22;;;3.00;;
19560;SDS011;9927;47.792;10.616;2023-05-07T10:35:37;3.50;;;2.70;;
19560;SDS011;9927;47.792;10.616;2023-05-07T10:38:07;4.20;;;3.05;;
19560;SDS011;9927;47.792;10.616;2023-05-07T10:40:35;7.10;;;4.22;;
19560;SDS011;9927;47.792;10.616;2023-05-07T10:43:04;3.85;;;2.80;;
19560;SDS011;9927;47.792;10.616;2023-05-07T10:45:36;3.63;;;2.97;;
19560;SDS011;9927;47.792;10.616;2023-05-07T10:51:18;3.05;;;2.75;;
19560;SDS011;9927;47.792;10.616;2023-05-07T10:53:45;5.70;;;3.22;;
19560;SDS011;9927;47.792;10.616;2023-05-07T10:58:45;6.47;;;3.75;;
19560;SDS011;9927;47.792;10.616;2023-05-07T11:01:13;7.82;;;2.85;;
19560;SDS011;9927;47.792;10.616;2023-05-07T11:04:12;5.10;;;3.50;;
19560;SDS011;9927;47.792;10.616;2023-05-07T11:06:41;5.47;;;2.92;;
19560;SDS011;9927;47.792;10.616;2023-05-07T11:09:08;3.22;;;2.92;;
19560;SDS011;9927;47.792;10.616;2023-05-07T11:17:09;4.57;;;3.15;;
19560;SDS011;9927;47.792;10.616;2023-05-07T11:19:53;4.22;;;3.35;;
19560;SDS011;9927;47.792;10.616;2023-05-07T11:25:07;5.05;;;3.15;;
19560;SDS011;9927;47.792;10.616;2023-05-07T11:27:35;3.33;;;2.85;;
19560;SDS011;9927;47.792;10.616;2023-05-07T11:30:03;4.13;;;3.03;;
19560;SDS011;9927;47.792;10.616;2023-05-07T11:32:31;4.13;;;3.03;;
19560;SDS011;9927;47.792;10.616;2023-05-07T11:34:59;5.25;;;2.95;;
19560;SDS011;9927;47.792;10.616;2023-05-07T11:37:27;2.92;;;2.70;;
19560;SDS011;9927;47.792;10.616;2023-05-07T11:40:03;5.70;;;3.25;;
19560;SDS011;9927;47.792;10.616;2023-05-07T11:42:34;4.90;;;3.15;;
19560;SDS011;9927;47.792;10.616;2023-05-07T11:45:04;7.82;;;3.72;;
19560;SDS011;9927;47.792;10.616;2023-05-07T11:47:33;8.80;;;4.15;;
19560;SDS011;9927;47.792;10.616;2023-05-07T11:50:05;6.40;;;3.35;;
19560;SDS011;9927;47.792;10.616;2023-05-07T11:52:34;11.43;;;3.90;;
19560;SDS011;9927;47.792;10.616;2023-05-07T11:55:02;6.47;;;3.72;;
19560;SDS011;9927;47.792;10.616;2023-05-07T11:57:32;8.65;;;4.13;;
19560;SDS011;9927;47.792;10.616;2023-05-07T12:00:00;8.73;;;4.10;;
19560;SDS011;9927;47.792;10.616;2023-05-07T12:02:32;9.52;;;4.38;;
19560;SDS011;9927;47.792;10.616;2023-05-07T12:05:00;10.50;;;4.53;;
19560;SDS011;9927;47.792;10.616;2023-05-07T12:07:27;5.57;;;3.75;;
19560;SDS011;9927;47.792;10.616;2023-05-07T12:09:54;8.75;;;5.00;;
19560;SDS011;9927;47.792;10.616;2023-05-07T12:12:22;7.32;;;4.28;;
19560;SDS011;9927;47.792;10.616;2023-05-07T12:14:49;5.75;;;3.92;;
19560;SDS011;9927;47.792;10.616;2023-05-07T12:17:16;6.32;;;4.35;;
19560;SDS011;9927;47.792;10.616;2023-05-07T12:19:44;4.78;;;4.07;;
19560;SDS011;9927;47.792;10.616;2023-05-07T12:22:12;4.28;;;3.90;;
19560;SDS011;9927;47.792;10.616;2023-05-07T12:24:46;6.00;;;4.30;;
19560;SDS011;9927;47.792;10.616;2023-05-07T12:27:15;5.10;;;4.13;;
19560;SDS011;9927;47.792;10.616;2023-05-07T12:29:46;6.90;;;4.65;;
19560;SDS011;9927;47.792;10.616;2023-05-07T12:32:17;7.05;;;5.35;;
19560;SDS011;9927;47.792;10.616;2023-05-07T12:34:49;5.95;;;4.20;;
19560;SDS011;9927;47.792;10.616;2023-05-07T12:37:22;5.00;;;4.32;;
19560;SDS011;9927;47.792;10.616;2023-05-07T12:40:09;8.90;;;4.22;;
19560;SDS011;9927;47.792;10.616;2023-05-07T12:42:38;6.25;;;4.63;;
19560;SDS011;9927;47.792;10.616;2023-05-07T12:47:37;4.43;;;3.92;;
19560;SDS011;9927;47.792;10.616;2023-05-07T12:50:05;5.57;;;4.57;;
19560;SDS011;9927;47.792;10.616;2023-05-07T12:52:33;6.60;;;5.65;;
19560;SDS011;9927;47.792;10.616;2023-05-07T12:55:04;9.90;;;8.45;;
19560;SDS011;9927;47.792;10.616;2023-05-07T12:57:39;11.27;;;9.43;;
19560;SDS011;9927;47.792;10.616;2023-05-07T13:00:08;7.25;;;5.38;;
19560;SDS011;9927;47.792;10.616;2023-05-07T13:02:39;7.10;;;5.28;;
19560;SDS011;9927;47.792;10.616;2023-05-07T13:05:08;5.22;;;4.60;;
19560;SDS011;9927;47.792;10.616;2023-05-07T13:07:36;4.82;;;4.20;;
19560;SDS011;9927;47.792;10.616;2023-05-07T13:10:04;5.90;;;4.82;;
19560;SDS011;9927;47.792;10.616;2023-05-07T13:12:32;4.10;;;3.70;;
19560;SDS011;9927;47.792;10.616;2023-05-07T13:14:59;4.30;;;3.90;;
19560;SDS011;9927;47.792;10.616;2023-05-07T13:17:27;3.25;;;3.05;;
19560;SDS011;9927;47.792;10.616;2023-05-07T13:19:54;3.67;;;3.38;;
19560;SDS011;9927;47.792;10.616;2023-05-07T13:22:21;5.43;;;4.45;;
19560;SDS011;9927;47.792;10.616;2023-05-07T13:24:48;12.45;;;9.45;;
19560;SDS011;9927;47.792;10.616;2023-05-07T13:27:18;5.40;;;4.10;;
19560;SDS011;9927;47.792;10.616;2023-05-07T13:29:46;13.70;;;11.07;;
19560;SDS011;9927;47.792;10.616;2023-05-07T13:32:13;3.20;;;3.00;;
19560;SDS011;9927;47.792;10.616;2023-05-07T13:34:40;6.85;;;4.18;;
19560;SDS011;9927;47.792;10.616;2023-05-07T13:37:07;3.53;;;3.08;;
19560;SDS011;9927;47.792;10.616;2023-05-07T13:39:37;5.43;;;3.35;;
19560;SDS011;9927;47.792;10.616;2023-05-07T13:42:04;3.47;;;2.90;;
19560;SDS011;9927;47.792;10.616;2023-05-07T13:44:31;3.22;;;2.92;;
19560;SDS011;9927;47.792;10.616;2023-05-07T13:46:59;3.30;;;3.10;;
19560;SDS011;9927;47.792;10.616;2023-05-07T13:49:27;4.22;;;2.70;;
19560;SDS011;9927;47.792;10.616;2023-05-07T13:51:54;2.78;;;2.40;;
19560;SDS011;9927;47.792;10.616;2023-05-07T13:54:21;5.45;;;3.75;;
19560;SDS011;9927;47.792;10.616;2023-05-07T13:56:48;5.22;;;3.58;;
19560;SDS011;9927;47.792;10.616;2023-05-07T13:59:16;3.40;;;3.00;;
19560;SDS011;9927;47.792;10.616;2023-05-07T14:01:43;5.68;;;3.65;;
19560;SDS011;9927;47.792;10.616;2023-05-07T14:04:10;6.35;;;5.20;;
19560;SDS011;9927;47.792;10.616;2023-05-07T14:06:37;4.40;;;3.88;;
19560;SDS011;9927;47.792;10.616;2023-05-07T14:09:05;3.33;;;3.00;;
19560;SDS011;9927;47.792;10.616;2023-05-07T14:11:32;4.43;;;3.95;;
19560;SDS011;9927;47.792;10.616;2023-05-07T14:14:02;9.45;;;5.78;;
19560;SDS011;9927;47.792;10.616;2023-05-07T14:16:29;3.40;;;3.00;;
19560;SDS011;9927;47.792;10.616;2023-05-07T14:18:56;3.25;;;2.95;;
19560;SDS011;9927;47.792;10.616;2023-05-07T14:21:24;6.15;;;3.20;;
19560;SDS011;9927;47.792;10.616;2023-05-07T14:23:51;4.10;;;3.40;;
19560;SDS011;9927;47.792;10.616;2023-05-07T14:26:19;3.35;;;3.10;;
19560;SDS011;9927;47.792;10.616;2023-05-07T14:28:47;6.32;;;5.72;;
19560;SDS011;9927;47.792;10.616;2023-05-07T14:31:14;4.03;;;3.72;;
19560;SDS011;9927;47.792;10.616;2023-05-07T14:33:42;5.00;;;3.83;;
19560;SDS011;9927;47.792;10.616;2023-05-07T14:36:09;3.00;;;2.80;;
19560;SDS011;9927;47.792;10.616;2023-05-07T14:38:36;3.70;;;2.88;;
19560;SDS011;9927;47.792;10.616;2023-05-07T14:41:03;3.15;;;2.30;;
19560;SDS011;9927;47.792;10.616;2023-05-07T14:43:31;2.60;;;2.40;;
19560;SDS011;9927;47.792;10.616;2023-05-07T14:45:58;2.40;;;2.20;;
19560;SDS011;9927;47.792;10.616;2023-05-07T14:48:25;2.55;;;2.35;;
19560;SDS011;9927;47.792;10.616;2023-05-07T14:50:52;3.10;;;2.80;;
19560;SDS011;9927;47.792;10.616;2023-05-07T14:53:19;2.78;;;2.58;;
19560;SDS011;9927;47.792;10.616;2023-05-07T14:55:47;3.67;;;3.25;;
19560;SDS011;9927;47.792;10.616;2023-05-07T14:58:14;5.38;;;4.47;;
19560;SDS011;9927;47.792;10.616;2023-05-07T15:00:41;8.27;;;5.35;;
19560;SDS011;9927;47.792;10.616;2023-05-07T15:03:09;3.20;;;2.67;;
19560;SDS011;9927;47.792;10.616;2023-05-07T15:05:37;3.47;;;2.80;;
19560;SDS011;9927;47.792;10.616;2023-05-07T15:08:04;2.65;;;2.33;;
19560;SDS011;9927;47.792;10.616;2023-05-07T15:10:34;6.75;;;4.30;;
19560;SDS011;9927;47.792;10.616;2023-05-07T15:13:08;2.30;;;2.10;;
19560;SDS011;9927;47.792;10.616;2023-05-07T15:15:41;3.00;;;2.50;;
19560;SDS011;9927;47.792;10.616;2023-05-07T15:18:10;7.57;;;5.68;;
19560;SDS011;9927;47.792;10.616;2023-05-07T15:20:37;8.18;;;5.35;;
19560;SDS011;9927;47.792;10.616;2023-05-07T15:23:05;4.55;;;2.60;;
19560;SDS011;9927;47.792;10.616;2023-05-07T15:25:36;2.80;;;2.45;;
19560;SDS011;9927;47.792;10.616;2023-05-07T15:28:03;5.97;;;4.72;;
19560;SDS011;9927;47.792;10.616;2023-05-07T15:30:30;6.53;;;4.97;;
19560;SDS011;9927;47.792;10.616;2023-05-07T15:32:58;4.15;;;3.40;;
19560;SDS011;9927;47.792;10.616;2023-05-07T15:35:25;4.68;;;3.10;;
19560;SDS011;9927;47.792;10.616;2023-05-07T15:37:52;3.75;;;2.80;;
19560;SDS011;9927;47.792;10.616;2023-05-07T15:40:20;4.47;;;3.28;;
19560;SDS011;9927;47.792;10.616;2023-05-07T15:42:47;4.80;;;2.15;;
19560;SDS011;9927;47.792;10.616;2023-05-07T15:45:14;7.28;;;4.35;;
19560;SDS011;9927;47.792;10.616;2023-05-07T15:47:42;4.90;;;4.10;;
19560;SDS011;9927;47.792;10.616;2023-05-07T15:50:09;4.65;;;3.85;;
19560;SDS011;9927;47.792;10.616;2023-05-07T15:52:37;5.22;;;3.38;;
19560;SDS011;9927;47.792;10.616;2023-05-07T15:55:05;3.90;;;3.13;;
19560;SDS011;9927;47.792;10.616;2023-05-07T15:57:33;4.10;;;3.70;;
19560;SDS011;9927;47.792;10.616;2023-05-07T16:00:00;3.47;;;3.17;;
19560;SDS011;9927;47.792;10.616;2023-05-07T16:02:29;6.43;;;3.72;;
19560;SDS011;9927;47.792;10.616;2023-05-07T16:04:57;6.63;;;4.10;;
19560;SDS011;9927;47.792;10.616;2023-05-07T16:07:24;3.67;;;3.05;;
19560;SDS011;9927;47.792;10.616;2023-05-07T16:09:51;3.55;;;3.13;;
19560;SDS011;9927;47.792;10.616;2023-05-07T16:12:18;3.00;;;2.80;;
19560;SDS011;9927;47.792;10.616;2023-05-07T16:14:46;4.30;;;2.80;;
19560;SDS011;9927;47.792;10.616;2023-05-07T16:17:13;3.60;;;3.15;;
19560;SDS011;9927;47.792;10.616;2023-05-07T16:19:40;3.65;;;3.35;;
19560;SDS011;9927;47.792;10.616;2023-05-07T16:22:07;3.70;;;3.10;;
19560;SDS011;9927;47.792;10.616;2023-05-07T16:24:35;5.43;;;3.13;;
19560;SDS011;9927;47.792;10.616;2023-05-07T16:27:02;5.70;;;3.38;;
19560;SDS011;9927;47.792;10.616;2023-05-07T16:29:29;4.13;;;3.33;;
19560;SDS011;9927;47.792;10.616;2023-05-07T16:31:56;3.83;;;3.13;;
19560;SDS011;9927;47.792;10.616;2023-05-07T16:34:24;5.57;;;3.47;;
19560;SDS011;9927;47.792;10.616;2023-05-07T16:36:51;3.42;;;3.10;;
19560;SDS011;9927;47.792;10.616;2023-05-07T16:39:18;4.00;;;3.58;;
19560;SDS011;9927;47.792;10.616;2023-05-07T16:41:46;5.35;;;3.45;;
19560;SDS011;9927;47.792;10.616;2023-05-07T16:44:16;6.03;;;4.45;;
19560;SDS011;9927;47.792;10.616;2023-05-07T16:46:44;7.22;;;3.40;;
19560;SDS011;9927;47.792;10.616;2023-05-07T16:49:11;6.35;;;4.13;;
19560;SDS011;9927;47.792;10.616;2023-05-07T16:51:39;6.03;;;3.50;;
19560;SDS011;9927;47.792;10.616;2023-05-07T16:54:08;5.15;;;3.47;;
19560;SDS011;9927;47.792;10.616;2023-05-07T16:56:37;4.90;;;3.85;;
19560;SDS011;9927;47.792;10.616;2023-05-07T16:59:04;4.65;;;3.38;;
19560;SDS011;9927;47.792;10.616;2023-05-07T17:01:32;4.30;;;2.83;;
19560;SDS011;9927;47.792;10.616;2023-05-07T17:04:00;4.80;;;3.08;;
19560;SDS011;9927;47.792;10.616;2023-05-07T17:06:27;6.10;;;3.22;;
19560;SDS011;9927;47.792;10.616;2023-05-07T17:08:54;3.13;;;2.78;;
19560;SDS011;9927;47.792;10.616;2023-05-07T17:11:22;3.97;;;2.75;;
19560;SDS011;9927;47.792;10.616;2023-05-07T17:13:49;3.92;;;2.80;;
19560;SDS011;9927;47.792;10.616;2023-05-07T17:16:17;4.43;;;3.00;;
19560;SDS011;9927;47.792;10.616;2023-05-07T17:18:45;6.35;;;3.63;;
19560;SDS011;9927;47.792;10.616;2023-05-07T17:21:12;4.88;;;3.22;;
19560;SDS011;9927;47.792;10.616;2023-05-07T17:23:39;6.95;;;4.07;;
19560;SDS011;9927;47.792;10.616;2023-05-07T17:26:10;6.07;;;3.65;;
19560;SDS011;9927;47.792;10.616;2023-05-07T17:28:39;7.15;;;4.05;;
19560;SDS011;9927;47.792;10.616;2023-05-07T17:31:06;4.43;;;3.03;;
19560;SDS011;9927;47.792;10.616;2023-05-07T17:33:34;3.42;;;2.92;;
19560;SDS011;9927;47.792;10.616;2023-05-07T17:36:02;4.57;;;3.50;;
19560;SDS011;9927;47.792;10.616;2023-05-07T17:38:29;4.75;;;3.78;;
19560;SDS011;9927;47.792;10.616;2023-05-07T17:40:57;6.78;;;3.92;;
19560;SDS011;9927;47.792;10.616;2023-05-07T17:43:25;5.60;;;3.42;;
19560;SDS011;9927;47.792;10.616;2023-05-07T17:45:52;5.55;;;3.38;;
19560;SDS011;9927;47.792;10.616;2023-05-07T17:48:19;5.95;;;3.50;;
19560;SDS011;9927;47.792;10.616;2023-05-07T17:50:47;7.45;;;3.70;;
19560;SDS011;9927;47.792;10.616;2023-05-07T17:53:14;5.43;;;3.40;;
19560;SDS011;9927;47.792;10.616;2023-05-07T17:55:41;7.65;;;3.58;;
19560;SDS011;9927;47.792;10.616;2023-05-07T17:58:10;7.68;;;3.40;;
19560;SDS011;9927;47.792;10.616;2023-05-07T18:00:38;8.82;;;4.55;;
19560;SDS011;9927;47.792;10.616;2023-05-07T18:03:05;4.15;;;3.75;;
19560;SDS011;9927;47.792;10.616;2023-05-07T18:05:36;4.43;;;3.53;;
19560;SDS011;9927;47.792;10.616;2023-05-07T18:08:03;5.38;;;3.88;;
19560;SDS011;9927;47.792;10.616;2023-05-07T18:10:32;7.25;;;4.40;;
19560;SDS011;9927;47.792;10.616;2023-05-07T18:13:00;4.63;;;3.83;;
19560;SDS011;9927;47.792;10.616;2023-05-07T18:15:27;4.13;;;3.58;;